Terminal Aerodrome Forecast
Issued by NWS

Home | Current Version | Previous Version | Graphics & Text | Print | Product List | Glossary On
Versions: 1 2 3 4 5 6 7 8 9 10 11 12 13 14 15 16 17 18 19 20 21 22 23 24 25
000
FTUS43 KABR 210051 AAA
TAFPIR
TAF AMD
KPIR 210051Z 2101/2124 00000KT P6SM BKN003
     FM210300 00000KT 5SM BR BKN003
     FM210600 00000KT 1/4SM FZFG OVC003
     FM211300 00000KT 1/2SM FZFG OVC008
     FM211600 VRB03KT 3SM BR OVC015
     FM211700 28004KT 5SM BR OVC020
     FM211800 29006KT P6SM OVC035=

USA.gov is the U.S. government's official web portal to all federal, state and local government web resources and services.